Alanson, MI

1:41 PM EDT on October 14, 2019 (GMT -0400)
Alanson | | Change Station

Elev 597 ft 45.42 °N, 84.79 °W | Updated 11 minutes ago

Mostly Cloudy
Mostly Cloudy
45.7 °F
Feels Like 38 °F
N
21
Wind Variable Wind from West
Gusts 21.0 mph

Today
High -- | Low -- °F
--% Chance of Precip.
Yesterday
High -- | Low -- °F
Precip. -- in
Pressure 29.92 in
Visibility 4.0 miles
Clouds Scattered Clouds 2200 ft
Mostly Cloudy 2900 ft
Overcast 6500 ft
Windchill 38 °F
Dew Point 39 °F
Humidity 78%
Rainfall 0.35 in
Snow Depth Not available.
7:53 AM 6:55 PM
Full, 99% visible
METAR KMGN 141738Z AUTO 29006G20KT 4SM -RA SCT022 BKN029 OVC065 06/05 A2992 RMK AO2 T00630049
Pressure 29.92 in
Visibility 4.0 miles
Clouds Scattered Clouds 2200 ft
Mostly Cloudy 2900 ft
Overcast 6500 ft
Windchill 38 °F
Dew Point 39 °F
Humidity 78%
Rainfall 0.35 in
Snow Depth Not available.
7:53 AM 6:55 PM
Full, 99% visible
METAR KMGN 141738Z AUTO 29006G20KT 4SM -RA SCT022 BKN029 OVC065 06/05 A2992 RMK AO2 T00630049

Get Severe Weather Alerts

Thanks for signing up!

Be on the lookout for a verification email in your inbox.

You'll start receiving the daily forecast at 6 AM.

×

10-Day Weather Forecast

Almanac

Astronomy

Oct. 14, 2019 Rise Set
Actual Time
Civil Twilight
Nautical Twilight
Astronomical Twilight
Moon
Length of Visible Light
Length of Day
Tomorrow will be .
, % of the Moon is Illuminated

Today's Extremes

State Highs State Lows

Community

WunderPhotos

Category 6

Welcome to Category 6. This is the collective home for Weather Underground's featured writeups by Dr. Jeff Masters (right), Bob Henson (left), Chris Burt, and other regular contributors.

Nearby

Air Quality

  Air Quality AQ Index Pollutant
Not available.

Snow Depth

Station Depth Elevation

Earthquake Activity

City Distance Mag. Time & Date
Minimum magnitude displayed is 2.5.

Coastal Water Temperatures

Place Temperature

Stations

Nearby Weather Stations

Station Location Temp. Windchill Dew Point Humidity Wind Precip. Elev Updated Type
                   

Watches & Warnings

There are currently no watches in effect.